Time;durP1;ratioP1;P1;durP2;ratioP2;P2;SDS_P1;SDS_P2;PMS_P1;PMS_P2;Temp;Humidity;BMP_temperature;BMP_pressure;BME280_temperature;BME280_humidity;BME280_pressure;Samples;Min_cycle;Max_cycle;Signal;HPM_P1;HPM_P2
2021/03/21 00:02:34;;;;;;;28.85;14.73;;;22.60;29.30;;;;;;6125799;28;83565;-65
2021/03/21 00:05:35;;;;;;;28.00;14.20;;;22.60;29.20;;;;;;6123674;28;83379;-65
2021/03/21 00:08:35;;;;;;;24.30;13.55;;;22.60;29.30;;;;;;6124415;28;83208;-63
2021/03/21 00:11:36;;;;;;;30.48;15.05;;;22.60;29.20;;;;;;6122949;28;83977;-63
2021/03/21 00:14:36;;;;;;;28.30;14.93;;;22.60;29.10;;;;;;6126654;28;84065;-63
2021/03/21 00:17:37;;;;;;;25.77;14.15;;;22.60;28.90;;;;;;6125530;28;83125;-64
2021/03/21 00:20:37;;;;;;;32.55;15.00;;;22.60;28.80;;;;;;6125238;28;83245;-63
2021/03/21 00:23:38;;;;;;;28.92;14.65;;;22.60;28.70;;;;;;6112672;28;84068;-65
2021/03/21 00:26:39;;;;;;;30.17;15.77;;;22.60;28.70;;;;;;6125393;28;83443;-63
2021/03/21 00:29:42;;;;;;;29.60;14.80;;;22.60;28.60;;;;;;6124080;28;83496;-64
2021/03/21 00:32:42;;;;;;;30.42;15.82;;;22.50;28.50;;;;;;6115466;28;84544;-65
2021/03/21 00:35:43;;;;;;;30.77;15.88;;;22.50;28.40;;;;;;6127392;28;83174;-65
2021/03/21 00:38:44;;;;;;;29.45;15.23;;;22.50;28.40;;;;;;6127428;28;84374;-64
2021/03/21 00:42:05;;;;;;;30.75;15.82;;;22.50;28.30;;;;;;6128563;28;83962;-63
2021/03/21 00:45:05;;;;;;;29.42;15.15;;;22.50;28.20;;;;;;6113086;28;85881;-65
2021/03/21 00:48:06;;;;;;;31.77;16.13;;;22.50;28.20;;;;;;6128338;28;88872;-64
2021/03/21 00:51:06;;;;;;;33.53;17.33;;;22.50;28.10;;;;;;6127086;28;83363;-67
2021/03/21 00:54:07;;;;;;;28.83;16.25;;;22.50;28.10;;;;;;6127245;28;84178;-67
2021/03/21 00:57:07;;;;;;;30.33;15.98;;;22.50;28.00;;;;;;6131322;28;84002;-65
2021/03/21 01:00:08;;;;;;;33.78;17.13;;;22.50;28.00;;;;;;6128231;28;83463;-63
2021/03/21 01:03:08;;;;;;;37.72;16.52;;;22.40;27.90;;;;;;6134839;28;84485;-63
2021/03/21 01:06:09;;;;;;;32.88;16.02;;;22.50;28.00;;;;;;6129688;28;83210;-63
2021/03/21 01:09:09;;;;;;;33.78;15.75;;;22.40;27.80;;;;;;6127617;28;83209;-66
2021/03/21 01:12:10;;;;;;;34.33;17.70;;;22.50;27.80;;;;;;6126375;28;84644;-65
2021/03/21 01:15:11;;;;;;;33.08;17.13;;;22.40;27.70;;;;;;6128794;28;83369;-64
2021/03/21 01:18:12;;;;;;;32.47;17.25;;;22.40;27.60;;;;;;6129334;28;83712;-64
2021/03/21 01:21:12;;;;;;;35.25;18.10;;;22.40;27.60;;;;;;6129880;28;83491;-64
2021/03/21 01:24:13;;;;;;;32.20;17.42;;;22.40;27.50;;;;;;6127882;28;83161;-64
2021/03/21 01:27:13;;;;;;;34.67;17.33;;;22.40;27.30;;;;;;6130077;28;86846;-64
2021/03/21 01:30:14;;;;;;;32.90;18.30;;;22.40;27.30;;;;;;6127749;28;83287;-64
2021/03/21 01:33:14;;;;;;;36.92;18.38;;;22.40;27.20;;;;;;6124736;28;83104;-64
2021/03/21 01:36:15;;;;;;;33.80;18.27;;;22.40;27.10;;;;;;6129479;28;82878;-64
2021/03/21 01:39:16;;;;;;;34.35;18.48;;;22.40;27.00;;;;;;6115043;28;83369;-64
2021/03/21 01:42:16;;;;;;;33.42;17.83;;;22.40;27.00;;;;;;6110806;28;86274;-64
2021/03/21 01:45:17;;;;;;;37.95;17.90;;;22.40;27.00;;;;;;6128542;28;83835;-64
2021/03/21 01:48:17;;;;;;;33.22;18.42;;;22.40;27.00;;;;;;6126193;28;83516;-64
2021/03/21 01:51:18;;;;;;;31.58;16.98;;;22.40;26.90;;;;;;6136431;28;83250;-64
2021/03/21 01:54:19;;;;;;;36.33;18.75;;;22.30;26.80;;;;;;6128700;28;84477;-64
2021/03/21 01:57:19;;;;;;;35.35;17.92;;;22.40;26.80;;;;;;6128665;28;82900;-64
2021/03/21 02:00:20;;;;;;;37.80;18.75;;;22.30;26.80;;;;;;6123367;28;83712;-64
2021/03/21 02:03:20;;;;;;;35.25;18.00;;;22.40;26.80;;;;;;6125732;28;83357;-64
2021/03/21 02:06:21;;;;;;;34.83;17.85;;;22.40;26.60;;;;;;6127065;28;94971;-63
2021/03/21 02:09:21;;;;;;;35.15;18.20;;;22.30;26.60;;;;;;6128938;28;84680;-64
2021/03/21 02:12:22;;;;;;;34.38;17.30;;;22.30;26.60;;;;;;6127738;28;83478;-64
2021/03/21 02:15:23;;;;;;;35.08;16.90;;;22.30;26.60;;;;;;6128214;28;83982;-63
2021/03/21 02:18:24;;;;;;;33.47;18.17;;;22.40;27.10;;;;;;6117300;28;83428;-64
2021/03/21 02:21:24;;;;;;;31.00;16.88;;;22.30;26.50;;;;;;6123480;28;83243;-64
2021/03/21 02:24:25;;;;;;;32.47;17.48;;;22.30;26.50;;;;;;6128630;28;85983;-65
2021/03/21 02:27:26;;;;;;;35.45;18.23;;;22.30;26.50;;;;;;6125129;28;83365;-64
2021/03/21 02:30:26;;;;;;;35.97;18.05;;;22.30;26.60;;;;;;6126426;28;83227;-65
2021/03/21 02:33:27;;;;;;;32.00;16.52;;;22.30;26.50;;;;;;6123622;28;83010;-66
2021/03/21 02:36:27;;;;;;;31.35;16.35;;;22.30;26.50;;;;;;6126497;28;84136;-65
2021/03/21 02:39:28;;;;;;;33.42;17.00;;;22.30;26.40;;;;;;6128594;28;83469;-65
2021/03/21 02:42:28;;;;;;;34.15;17.02;;;22.30;26.40;;;;;;6123006;28;83679;-65
2021/03/21 02:45:29;;;;;;;31.58;16.23;;;22.30;26.40;;;;;;6126920;28;83551;-65
2021/03/21 02:48:29;;;;;;;29.08;15.75;;;22.30;26.30;;;;;;6128411;28;83918;-65
2021/03/21 02:51:30;;;;;;;28.50;15.95;;;22.20;26.20;;;;;;6126610;28;83254;-66
2021/03/21 02:54:30;;;;;;;29.40;16.10;;;22.30;26.20;;;;;;6126675;28;83045;-66
2021/03/21 02:57:31;;;;;;;33.17;17.05;;;22.30;26.20;;;;;;6125821;28;87081;-65
2021/03/21 03:00:31;;;;;;;31.40;16.27;;;22.30;26.10;;;;;;6126207;28;84150;-65
2021/03/21 03:03:32;;;;;;;31.27;16.00;;;22.20;26.00;;;;;;6109653;28;85983;-65
2021/03/21 03:06:32;;;;;;;31.17;16.52;;;22.30;26.00;;;;;;6126411;28;83512;-65
2021/03/21 03:09:33;;;;;;;31.45;15.95;;;22.30;26.00;;;;;;6126395;28;83687;-66
2021/03/21 03:12:34;;;;;;;32.17;16.38;;;22.20;25.90;;;;;;6127298;28;83377;-65
2021/03/21 03:15:34;;;;;;;28.15;16.40;;;22.20;25.90;;;;;;6126376;28;83966;-66
2021/03/21 03:18:35;;;;;;;31.30;15.60;;;22.30;25.90;;;;;;6109586;28;85975;-65
2021/03/21 03:21:35;;;;;;;28.85;15.35;;;22.20;25.90;;;;;;6126312;28;83878;-65
2021/03/21 03:24:36;;;;;;;30.80;15.45;;;22.20;25.90;;;;;;6126545;28;83167;-66
2021/03/21 03:27:36;;;;;;;28.85;15.13;;;22.20;25.90;;;;;;6126705;28;83394;-68
2021/03/21 03:30:37;;;;;;;31.75;15.40;;;22.20;25.90;;;;;;6129201;28;83566;-66
2021/03/21 03:33:38;;;;;;;30.05;15.63;;;22.20;25.90;;;;;;6131260;28;84210;-65
2021/03/21 03:36:38;;;;;;;31.30;14.95;;;22.20;25.90;;;;;;6126473;28;86204;-66
2021/03/21 03:39:39;;;;;;;29.35;14.95;;;22.20;25.90;;;;;;6127561;28;83421;-65
2021/03/21 03:42:39;;;;;;;26.60;14.30;;;22.20;25.80;;;;;;6122264;28;83409;-66
2021/03/21 03:45:40;;;;;;;25.48;14.07;;;22.20;25.80;;;;;;6126767;28;82928;-65
2021/03/21 03:48:42;;;;;;;25.90;13.48;;;22.20;25.80;;;;;;6125445;28;83245;-66
2021/03/21 03:51:43;;;;;;;25.48;14.30;;;22.20;25.80;;;;;;6129263;28;83102;-66
2021/03/21 03:54:43;;;;;;;31.17;13.43;;;22.20;25.80;;;;;;6128724;28;84884;-64
2021/03/21 03:57:44;;;;;;;25.38;13.40;;;22.10;25.90;;;;;;6123511;28;83667;-63
2021/03/21 04:00:44;;;;;;;24.38;13.25;;;22.10;25.90;;;;;;6125325;28;83566;-64
2021/03/21 04:03:45;;;;;;;24.30;12.10;;;22.10;26.00;;;;;;6127893;28;88295;-63
2021/03/21 04:06:45;;;;;;;24.48;12.63;;;22.10;26.10;;;;;;6125576;28;84093;-64
2021/03/21 04:09:46;;;;;;;23.98;11.18;;;22.10;26.00;;;;;;6125772;28;86715;-65
2021/03/21 04:12:47;;;;;;;22.45;11.27;;;22.20;26.10;;;;;;6123153;28;83146;-66
2021/03/21 04:15:47;;;;;;;19.67;11.63;;;22.20;26.00;;;;;;6120403;28;83976;-65
2021/03/21 04:18:48;;;;;;;21.15;12.38;;;22.20;26.10;;;;;;6125410;28;84339;-67
2021/03/21 04:21:48;;;;;;;21.38;11.25;;;22.20;26.30;;;;;;6125563;28;84035;-67
2021/03/21 04:24:49;;;;;;;21.63;11.48;;;22.20;26.70;;;;;;6123054;28;86122;-66
2021/03/21 04:27:51;;;;;;;20.58;11.63;;;22.20;26.20;;;;;;6126355;28;83308;-67
2021/03/21 04:30:52;;;;;;;20.52;10.77;;;22.10;26.10;;;;;;6125479;28;83373;-66
2021/03/21 04:33:52;;;;;;;19.85;11.07;;;22.10;26.10;;;;;;6134492;28;83429;-66
2021/03/21 04:36:53;;;;;;;21.25;11.27;;;22.20;26.10;;;;;;6126472;28;83354;-66
2021/03/21 04:39:53;;;;;;;21.70;11.57;;;22.20;25.90;;;;;;6123794;28;83763;-66
2021/03/21 04:42:54;;;;;;;21.13;10.18;;;22.10;26.00;;;;;;6100355;28;83595;-66
2021/03/21 04:45:54;;;;;;;21.13;9.95;;;22.20;26.40;;;;;;6122485;28;85231;-66
2021/03/21 04:48:55;;;;;;;18.40;10.13;;;22.20;25.70;;;;;;6118469;28;83037;-66
2021/03/21 04:51:56;;;;;;;21.05;10.60;;;22.30;28.20;;;;;;6122024;28;83599;-67
2021/03/21 04:54:56;;;;;;;20.55;9.70;;;22.30;26.60;;;;;;6120257;28;83345;-68
2021/03/21 04:57:57;;;;;;;22.30;9.38;;;22.30;26.50;;;;;;6118505;28;84159;-69
2021/03/21 05:00:58;;;;;;;17.83;9.45;;;22.40;26.30;;;;;;6128203;28;80870;-68
2021/03/21 05:03:58;;;;;;;17.02;8.38;;;22.40;25.90;;;;;;6127606;28;80805;-70
2021/03/21 05:06:59;;;;;;;15.90;8.50;;;22.50;25.80;;;;;;6129172;28;80787;-70
2021/03/21 05:09:59;;;;;;;15.75;8.88;;;22.50;25.70;;;;;;6128181;28;80944;-69
2021/03/21 05:13:00;;;;;;;15.18;8.40;;;22.50;25.60;;;;;;6128074;28;80799;-70
2021/03/21 05:16:00;;;;;;;19.17;8.60;;;22.50;25.60;;;;;;6127426;28;80858;-68
2021/03/21 05:19:01;;;;;;;14.60;8.07;;;22.60;25.50;;;;;;6122883;28;80583;-67
2021/03/21 05:22:01;;;;;;;17.55;7.90;;;22.70;25.20;;;;;;6130737;28;80965;-67
2021/03/21 05:25:02;;;;;;;14.05;6.93;;;22.70;25.00;;;;;;6123145;28;81823;-67
2021/03/21 05:28:03;;;;;;;11.90;6.53;;;22.70;24.90;;;;;;6134885;28;80499;-67
2021/03/21 05:31:03;;;;;;;14.60;7.65;;;22.70;24.90;;;;;;6123329;28;80688;-67
2021/03/21 05:34:04;;;;;;;13.40;7.03;;;22.80;24.60;;;;;;6132007;28;82070;-63
2021/03/21 05:37:04;;;;;;;13.57;6.93;;;22.80;24.40;;;;;;6116287;28;80857;-64
2021/03/21 05:40:05;;;;;;;14.48;7.00;;;22.80;24.10;;;;;;6130945;28;80714;-64
2021/03/21 05:43:06;;;;;;;11.30;6.80;;;22.80;24.20;;;;;;6112848;28;81426;-64
2021/03/21 05:46:06;;;;;;;11.20;6.35;;;22.90;24.30;;;;;;6130213;28;80623;-63
2021/03/21 05:49:07;;;;;;;15.70;6.45;;;22.90;24.20;;;;;;6129166;28;81727;-65
2021/03/21 05:52:07;;;;;;;12.95;6.40;;;22.90;24.00;;;;;;6128346;28;81375;-65
2021/03/21 05:55:08;;;;;;;15.48;6.05;;;22.90;24.30;;;;;;6102831;28;80960;-64
2021/03/21 05:58:08;;;;;;;10.60;6.20;;;22.90;24.20;;;;;;6130381;28;81430;-65
2021/03/21 06:01:09;;;;;;;11.05;6.00;;;23.00;24.50;;;;;;6130120;28;80841;-65
2021/03/21 06:04:11;;;;;;;11.25;6.13;;;23.10;24.20;;;;;;6114540;28;81295;-65
2021/03/21 06:07:11;;;;;;;11.70;6.15;;;23.00;24.10;;;;;;6130340;28;81329;-64
2021/03/21 06:10:12;;;;;;;14.43;5.65;;;23.00;23.90;;;;;;6129521;28;82875;-66
2021/03/21 06:13:12;;;;;;;8.73;5.65;;;23.10;24.00;;;;;;6131870;28;80638;-68
2021/03/21 06:16:13;;;;;;;12.65;5.68;;;23.10;24.00;;;;;;6130112;28;80503;-65
2021/03/21 06:19:14;;;;;;;8.85;5.40;;;23.20;24.30;;;;;;6133691;28;81053;-66
2021/03/21 06:22:14;;;;;;;10.88;5.28;;;23.20;24.30;;;;;;6130333;28;80427;-64
2021/03/21 06:25:15;;;;;;;8.27;5.03;;;23.20;24.10;;;;;;6130775;28;83774;-67
2021/03/21 06:28:15;;;;;;;10.63;5.60;;;23.20;24.50;;;;;;6129686;28;80216;-67
2021/03/21 06:31:16;;;;;;;9.95;5.32;;;23.30;24.80;;;;;;6130842;28;82859;-66
2021/03/21 06:34:16;;;;;;;7.72;4.70;;;23.30;24.60;;;;;;6130777;28;81645;-67
2021/03/21 06:37:17;;;;;;;8.63;4.70;;;23.30;24.80;;;;;;6130947;28;80570;-66
2021/03/21 06:40:17;;;;;;;9.18;4.63;;;23.30;25.10;;;;;;6130117;28;80911;-66
2021/03/21 06:43:18;;;;;;;7.60;4.30;;;23.40;25.50;;;;;;6129929;28;87694;-68
2021/03/21 06:46:18;;;;;;;8.15;4.63;;;23.40;25.70;;;;;;6113905;28;80731;-67
2021/03/21 06:49:19;;;;;;;6.65;4.30;;;23.40;26.00;;;;;;6130868;28;80574;-66
2021/03/21 06:52:20;;;;;;;7.63;4.50;;;23.40;26.30;;;;;;6127948;28;81023;-66
2021/03/21 06:55:20;;;;;;;7.38;4.25;;;23.40;26.20;;;;;;6130827;28;80322;-66
2021/03/21 06:58:21;;;;;;;9.13;4.15;;;23.40;26.00;;;;;;6130758;28;80916;-65
2021/03/21 07:01:21;;;;;;;6.20;3.85;;;23.40;26.10;;;;;;6130822;28;80565;-66
2021/03/21 07:04:22;;;;;;;9.32;5.57;;;23.50;26.20;;;;;;6130212;28;82785;-67
2021/03/21 07:07:22;;;;;;;6.43;3.83;;;23.50;27.10;;;;;;6130032;28;80639;-65
2021/03/21 07:10:23;;;;;;;7.50;4.35;;;23.50;26.40;;;;;;6116126;28;80533;-67
2021/03/21 07:13:24;;;;;;;11.70;4.22;;;23.60;26.40;;;;;;6131600;28;80610;-66
2021/03/21 07:16:24;;;;;;;7.20;3.80;;;23.60;26.60;;;;;;6115167;28;83300;-66
2021/03/21 07:19:25;;;;;;;7.15;4.07;;;23.60;26.30;;;;;;6107908;28;81389;-68
2021/03/21 07:22:25;;;;;;;6.65;3.72;;;23.60;26.60;;;;;;6118788;28;80444;-67
2021/03/21 07:25:26;;;;;;;6.60;4.45;;;23.60;26.10;;;;;;6128684;28;81712;-65
2021/03/21 07:28:26;;;;;;;6.85;3.95;;;23.60;25.90;;;;;;6130289;28;81134;-67
2021/03/21 07:31:27;;;;;;;7.65;4.20;;;23.60;26.20;;;;;;6130489;28;80914;-66
2021/03/21 07:34:27;;;;;;;6.75;3.70;;;23.60;26.30;;;;;;6114739;28;82282;-66
2021/03/21 07:37:29;;;;;;;5.55;3.25;;;23.50;26.10;;;;;;6124138;28;80220;-66
2021/03/21 07:40:29;;;;;;;7.82;3.75;;;23.50;25.90;;;;;;6131783;28;80671;-67
2021/03/21 07:43:30;;;;;;;5.47;3.25;;;23.50;26.00;;;;;;6128877;28;80870;-66
2021/03/21 07:46:31;;;;;;;11.50;3.95;;;23.50;26.10;;;;;;6130706;28;81232;-69
2021/03/21 07:49:31;;;;;;;4.45;3.60;;;23.50;26.10;;;;;;6116702;28;80671;-70
2021/03/21 07:52:33;;;;;;;5.97;3.55;;;23.50;26.00;;;;;;6121696;28;81157;-67
2021/03/21 07:55:33;;;;;;;6.07;3.50;;;23.50;25.80;;;;;;6094098;28;82959;-67
2021/03/21 07:58:34;;;;;;;7.15;3.67;;;23.50;25.50;;;;;;6130499;28;80791;-67
2021/03/21 08:01:35;;;;;;;8.48;3.75;;;23.40;25.40;;;;;;6129623;28;80413;-66
2021/03/21 08:04:35;;;;;;;6.72;3.33;;;23.40;25.30;;;;;;6123114;28;80822;-66
2021/03/21 08:07:36;;;;;;;6.38;3.80;;;23.40;25.00;;;;;;6126679;28;81283;-66
2021/03/21 08:10:37;;;;;;;5.43;3.42;;;23.40;25.30;;;;;;6122727;28;82040;-65
2021/03/21 08:13:37;;;;;;;6.20;3.22;;;23.40;25.60;;;;;;6131814;28;80842;-68
2021/03/21 08:16:38;;;;;;;5.35;3.72;;;23.40;25.30;;;;;;6134915;28;80748;-67
2021/03/21 08:19:38;;;;;;;4.35;3.33;;;23.30;25.50;;;;;;6127713;28;80622;-66
2021/03/21 08:22:39;;;;;;;6.53;3.30;;;23.30;25.70;;;;;;6129712;28;82416;-66
2021/03/21 08:25:39;;;;;;;6.97;3.97;;;23.30;25.60;;;;;;6129330;28;80409;-65
2021/03/21 08:28:40;;;;;;;4.45;3.00;;;23.30;25.80;;;;;;6128439;28;81165;-65
2021/03/21 08:31:41;;;;;;;5.25;3.30;;;23.20;26.00;;;;;;6114211;28;82200;-66
2021/03/21 08:34:43;;;;;;;6.45;3.90;;;23.20;25.90;;;;;;6131671;28;81609;-67
2021/03/21 08:37:45;;;;;;;12.90;3.90;;;23.20;25.40;;;;;;6129674;28;81396;-67
2021/03/21 08:40:45;;;;;;;6.55;4.05;;;23.20;25.70;;;;;;6129807;28;80572;-63
2021/03/21 08:43:46;;;;;;;6.00;4.07;;;23.20;25.80;;;;;;6124500;28;81103;-67
2021/03/21 08:46:46;;;;;;;5.45;3.70;;;23.10;26.30;;;;;;6129780;28;83294;-67
2021/03/21 08:49:47;;;;;;;4.70;3.17;;;23.10;26.40;;;;;;6112099;28;81120;-68
2021/03/21 08:52:48;;;;;;;5.03;3.30;;;23.10;25.90;;;;;;6111181;28;81183;-67
2021/03/21 08:55:48;;;;;;;6.50;3.78;;;23.10;25.50;;;;;;6127243;28;80568;-67
2021/03/21 08:58:49;;;;;;;4.40;2.92;;;23.00;25.30;;;;;;6129583;28;81826;-66
2021/03/21 09:01:50;;;;;;;9.05;3.72;;;23.10;25.80;;;;;;6133105;28;80923;-66
2021/03/21 09:04:50;;;;;;;9.30;3.35;;;23.00;25.70;;;;;;6131579;28;80609;-66
2021/03/21 09:07:51;;;;;;;6.05;3.70;;;23.00;25.80;;;;;;6134859;28;81015;-65
2021/03/21 09:10:52;;;;;;;8.77;4.28;;;23.00;26.20;;;;;;6132247;28;80916;-68
2021/03/21 09:13:52;;;;;;;5.97;4.07;;;23.00;26.20;;;;;;6135411;28;80176;-67
2021/03/21 09:16:53;;;;;;;6.15;3.88;;;23.00;26.20;;;;;;6115673;28;81562;-67
2021/03/21 09:19:53;;;;;;;5.88;3.85;;;22.90;26.10;;;;;;6126696;28;80845;-67
2021/03/21 09:22:55;;;;;;;8.15;3.58;;;22.90;26.40;;;;;;6132232;28;81156;-67
2021/03/21 09:25:57;;;;;;;5.93;3.72;;;22.90;26.00;;;;;;6130482;28;80476;-68
2021/03/21 09:28:58;;;;;;;4.65;2.97;;;22.90;26.20;;;;;;6126221;28;84618;-66
2021/03/21 09:31:58;;;;;;;5.93;3.33;;;22.90;26.60;;;;;;6113961;28;81881;-66
2021/03/21 09:34:59;;;;;;;5.80;3.65;;;22.90;26.40;;;;;;6132577;28;83183;-68
2021/03/21 09:38:00;;;;;;;7.13;4.05;;;22.90;27.10;;;;;;6127442;28;86265;-67
2021/03/21 09:41:02;;;;;;;5.75;3.45;;;22.90;26.40;;;;;;6132264;28;80894;-67
2021/03/21 09:44:03;;;;;;;10.25;3.40;;;22.90;26.80;;;;;;6103712;28;86066;-66
2021/03/21 09:47:03;;;;;;;5.47;3.20;;;23.00;26.80;;;;;;6131953;28;81386;-67
2021/03/21 09:50:04;;;;;;;7.45;3.97;;;23.00;26.40;;;;;;6132713;28;80209;-64
2021/03/21 09:53:05;;;;;;;8.15;4.03;;;23.00;26.40;;;;;;6131909;28;81558;-66
2021/03/21 09:56:05;;;;;;;5.28;3.38;;;23.10;26.90;;;;;;6132504;28;80754;-66
2021/03/21 09:59:06;;;;;;;7.80;4.10;;;23.10;26.40;;;;;;6131567;28;81767;-66
2021/03/21 10:02:06;;;;;;;5.22;3.03;;;23.00;26.50;;;;;;6113798;28;83280;-66
2021/03/21 10:05:07;;;;;;;8.45;3.42;;;23.00;26.70;;;;;;6131187;28;80307;-67
2021/03/21 10:08:07;;;;;;;7.55;3.38;;;23.00;26.60;;;;;;6124253;28;87298;-68
2021/03/21 10:11:08;;;;;;;10.98;4.07;;;23.00;27.10;;;;;;6128791;28;81093;-67
2021/03/21 10:14:09;;;;;;;8.32;3.78;;;23.00;26.70;;;;;;6129622;28;80800;-67
2021/03/21 10:17:09;;;;;;;5.97;3.75;;;23.00;27.20;;;;;;6130188;28;80774;-68
2021/03/21 10:20:10;;;;;;;8.18;4.07;;;23.00;26.80;;;;;;6131820;28;80470;-66
2021/03/21 10:23:11;;;;;;;6.72;3.45;;;23.10;26.80;;;;;;6124154;28;80890;-67
2021/03/21 10:26:12;;;;;;;8.43;3.33;;;23.10;26.90;;;;;;6131198;28;81447;-67
2021/03/21 10:29:12;;;;;;;4.68;3.20;;;23.00;27.00;;;;;;6130337;28;89776;-69
2021/03/21 10:32:13;;;;;;;7.28;3.85;;;23.00;26.90;;;;;;6129233;28;80756;-67
2021/03/21 10:35:13;;;;;;;4.95;3.38;;;23.00;26.80;;;;;;6113383;28;80640;-65
2021/03/21 10:38:14;;;;;;;8.48;3.95;;;23.10;26.90;;;;;;6108801;28;80515;-67
2021/03/21 10:41:14;;;;;;;6.40;4.55;;;23.00;26.20;;;;;;6132517;28;80965;-66
2021/03/21 10:44:15;;;;;;;8.80;3.97;;;23.00;26.00;;;;;;6106094;28;80544;-67
2021/03/21 10:47:15;;;;;;;13.73;4.50;;;23.00;26.50;;;;;;6132499;28;80779;-65
2021/03/21 10:50:16;;;;;;;11.13;4.90;;;23.00;25.90;;;;;;6131293;28;80842;-67
2021/03/21 10:53:17;;;;;;;23.70;7.35;;;23.10;25.70;;;;;;6129836;28;80794;-65
2021/03/21 10:56:18;;;;;;;12.85;5.45;;;23.10;26.40;;;;;;6110941;28;86766;-68
2021/03/21 10:59:18;;;;;;;22.52;8.85;;;23.10;25.20;;;;;;6129951;28;81200;-68
2021/03/21 11:02:19;;;;;;;22.65;7.57;;;23.20;26.80;;;;;;6130119;28;80672;-66
2021/03/21 11:05:20;;;;;;;22.08;7.78;;;23.20;26.20;;;;;;6130792;28;80480;-68
2021/03/21 11:08:21;;;;;;;21.70;8.65;;;23.30;26.80;;;;;;6117368;28;80614;-68
2021/03/21 11:11:22;;;;;;;17.08;7.82;;;23.30;27.10;;;;;;6110111;28;81409;-68
2021/03/21 11:14:22;;;;;;;29.33;9.77;;;23.40;27.30;;;;;;6120733;28;81266;-65
2021/03/21 11:17:23;;;;;;;32.28;10.25;;;23.40;27.50;;;;;;6130473;28;80825;-68
2021/03/21 11:20:23;;;;;;;32.85;10.57;;;23.40;27.70;;;;;;6126906;28;83160;-66
2021/03/21 11:23:24;;;;;;;25.95;9.63;;;23.40;27.80;;;;;;6120737;28;83030;-68
2021/03/21 11:26:25;;;;;;;31.90;8.88;;;23.40;27.80;;;;;;6129000;28;82939;-68
2021/03/21 11:29:25;;;;;;;24.52;9.50;;;23.40;27.60;;;;;;6131122;28;80487;-67
2021/03/21 11:32:26;;;;;;;22.02;9.25;;;23.50;27.60;;;;;;6130189;28;80580;-68
2021/03/21 11:35:27;;;;;;;22.50;9.00;;;23.50;27.80;;;;;;6129119;28;80776;-68
2021/03/21 11:38:28;;;;;;;24.48;8.25;;;23.50;27.90;;;;;;6127403;28;82138;-67
2021/03/21 11:41:29;;;;;;;20.27;8.82;;;23.50;27.80;;;;;;6130202;28;81312;-66
2021/03/21 11:44:29;;;;;;;19.63;7.35;;;23.50;27.80;;;;;;6130427;28;80855;-66
2021/03/21 11:47:30;;;;;;;18.83;8.75;;;23.40;27.60;;;;;;6131210;28;81019;-69
2021/03/21 11:50:30;;;;;;;27.17;8.32;;;23.40;27.40;;;;;;6124083;28;81254;-68
2021/03/21 11:53:32;;;;;;;14.15;6.75;;;23.40;27.50;;;;;;6135072;28;80816;-68
2021/03/21 11:56:33;;;;;;;14.50;7.38;;;23.40;27.40;;;;;;6107575;28;81392;-67
2021/03/21 11:59:33;;;;;;;14.27;6.45;;;23.40;27.20;;;;;;6102506;28;82657;-68
2021/03/21 12:02:34;;;;;;;15.40;6.90;;;23.40;27.30;;;;;;6103375;28;81505;-66
2021/03/21 12:05:34;;;;;;;13.02;6.55;;;23.40;27.80;;;;;;6103393;28;81382;-67
2021/03/21 12:08:35;;;;;;;12.50;6.40;;;23.40;28.00;;;;;;6092536;28;81685;-66
2021/03/21 12:11:35;;;;;;;13.57;6.72;;;23.40;28.10;;;;;;6104016;28;80733;-67
2021/03/21 12:14:36;;;;;;;11.95;6.45;;;23.40;28.10;;;;;;6106565;28;80853;-67
2021/03/21 12:17:38;;;;;;;13.82;6.40;;;23.30;28.20;;;;;;6080801;28;80983;-68
2021/03/21 12:20:39;;;;;;;15.98;6.13;;;23.30;28.10;;;;;;6106257;28;81442;-68
2021/03/21 12:23:41;;;;;;;11.60;6.40;;;23.40;28.90;;;;;;6105370;28;80872;-64
2021/03/21 12:26:45;;;;;;;10.50;5.72;;;23.40;28.20;;;;;;6106182;28;80896;-68
2021/03/21 12:29:46;;;;;;;11.07;6.22;;;23.40;27.90;;;;;;6095770;28;82736;-64
2021/03/21 12:32:48;;;;;;;13.63;6.78;;;23.40;28.00;;;;;;6100292;28;83980;-64
2021/03/21 12:35:49;;;;;;;11.73;5.65;;;23.30;27.90;;;;;;6103401;28;81051;-64
2021/03/21 12:38:57;;;;;;;9.20;5.13;;;23.30;28.00;;;;;;6101515;28;81412;-65
2021/03/21 12:41:57;;;;;;;11.70;6.15;;;23.30;27.20;;;;;;6096028;28;86384;-63
2021/03/21 12:44:58;;;;;;;10.85;5.85;;;23.20;27.00;;;;;;6099117;28;83071;-63
2021/03/21 12:48:00;;;;;;;8.60;5.38;;;23.20;26.90;;;;;;6110456;28;83083;-64
2021/03/21 12:51:01;;;;;;;9.48;4.95;;;23.20;27.30;;;;;;6100247;28;80625;-65
2021/03/21 12:54:02;;;;;;;11.20;5.45;;;23.20;28.00;;;;;;6100096;28;81368;-65
2021/03/21 12:57:03;;;;;;;9.60;5.32;;;23.10;27.00;;;;;;6093195;28;80199;-65
2021/03/21 13:00:03;;;;;;;9.27;5.43;;;23.10;27.30;;;;;;6114147;28;81721;-66
2021/03/21 13:03:04;;;;;;;7.57;4.68;;;23.10;27.30;;;;;;6049047;28;80889;-66
2021/03/21 13:06:04;;;;;;;9.02;5.40;;;23.10;27.70;;;;;;6086608;28;80578;-64
2021/03/21 13:09:05;;;;;;;11.32;5.97;;;23.10;27.40;;;;;;6127099;28;82254;-67
2021/03/21 13:12:06;;;;;;;9.02;4.75;;;23.10;27.30;;;;;;6123447;28;81438;-66
2021/03/21 13:15:06;;;;;;;7.40;4.97;;;23.10;27.10;;;;;;6125449;28;81464;-65
2021/03/21 13:18:07;;;;;;;8.75;4.72;;;23.10;27.50;;;;;;6126857;28;82429;-67
2021/03/21 13:21:07;;;;;;;9.43;5.20;;;23.00;27.70;;;;;;6125814;28;81081;-67
2021/03/21 13:24:08;;;;;;;10.50;5.25;;;23.00;27.20;;;;;;6127226;28;82132;-66
2021/03/21 13:27:09;;;;;;;10.60;5.70;;;23.10;27.30;;;;;;6126076;28;81243;-65
2021/03/21 13:30:10;;;;;;;10.10;5.57;;;23.10;27.10;;;;;;6125407;28;81379;-64
2021/03/21 13:33:10;;;;;;;16.08;6.25;;;23.00;27.20;;;;;;6127234;28;80623;-66
2021/03/21 13:36:13;;;;;;;8.60;4.72;;;23.10;27.30;;;;;;6129096;28;80974;-65
2021/03/21 13:39:13;;;;;;;9.13;5.25;;;23.00;27.40;;;;;;6128121;28;80396;-65
2021/03/21 13:42:14;;;;;;;6.93;4.80;;;23.10;27.50;;;;;;6129096;28;81967;-66
2021/03/21 13:45:14;;;;;;;6.45;4.15;;;23.10;27.50;;;;;;6136699;28;80833;-63
2021/03/21 13:48:15;;;;;;;8.52;5.10;;;23.00;27.20;;;;;;6131653;28;80675;-65
2021/03/21 13:51:15;;;;;;;7.95;4.85;;;23.00;27.70;;;;;;6131757;28;80773;-66
2021/03/21 13:54:17;;;;;;;8.63;4.57;;;23.10;27.40;;;;;;6134333;28;80936;-65
2021/03/21 13:57:18;;;;;;;8.80;4.47;;;23.00;27.50;;;;;;6131496;28;80476;-63
2021/03/21 14:00:20;;;;;;;9.50;4.97;;;23.00;27.90;;;;;;6112862;28;81556;-66
2021/03/21 14:03:20;;;;;;;6.97;3.85;;;23.00;28.30;;;;;;6131529;28;81072;-66
2021/03/21 14:06:21;;;;;;;9.27;4.68;;;23.10;27.90;;;;;;6130635;28;80521;-63
2021/03/21 14:09:21;;;;;;;7.57;5.07;;;23.00;28.10;;;;;;6128302;28;80906;-65
2021/03/21 14:12:22;;;;;;;9.23;4.90;;;23.10;28.50;;;;;;6129571;28;80298;-64
2021/03/21 14:15:22;;;;;;;7.53;4.88;;;23.10;29.30;;;;;;6129233;28;81201;-66
2021/03/21 14:18:23;;;;;;;8.32;4.40;;;23.00;28.90;;;;;;6112303;28;81450;-65
2021/03/21 14:21:24;;;;;;;7.72;4.68;;;23.10;28.60;;;;;;6130716;28;81208;-65
2021/03/21 14:24:25;;;;;;;6.13;3.92;;;23.00;28.30;;;;;;6124993;28;80460;-65
2021/03/21 14:27:25;;;;;;;7.00;4.10;;;23.00;28.70;;;;;;6130081;28;80348;-65
2021/03/21 14:30:26;;;;;;;6.97;4.65;;;22.90;28.30;;;;;;6126680;28;80649;-65
2021/03/21 14:33:27;;;;;;;7.03;4.18;;;23.00;28.60;;;;;;6128268;28;81053;-65
2021/03/21 14:36:27;;;;;;;10.73;4.40;;;23.00;29.20;;;;;;6128839;28;82390;-64
2021/03/21 14:39:28;;;;;;;7.38;4.45;;;23.00;28.90;;;;;;6133374;28;80608;-64
2021/03/21 14:42:29;;;;;;;6.18;3.72;;;22.90;28.20;;;;;;6126825;28;81314;-67
2021/03/21 14:45:30;;;;;;;8.40;4.57;;;23.00;27.50;;;;;;6127133;28;81648;-67
2021/03/21 14:48:30;;;;;;;6.90;4.60;;;23.00;27.40;;;;;;6127397;28;81290;-66
2021/03/21 14:51:31;;;;;;;7.65;3.75;;;23.00;27.40;;;;;;6127138;28;80882;-67
2021/03/21 14:54:32;;;;;;;8.68;4.30;;;23.00;27.60;;;;;;6126502;28;80422;-66
2021/03/21 14:57:32;;;;;;;9.35;4.22;;;23.00;27.50;;;;;;6107474;28;82878;-65
2021/03/21 15:00:33;;;;;;;6.25;4.22;;;23.10;27.80;;;;;;6131134;28;81150;-67
2021/03/21 15:03:34;;;;;;;6.53;4.53;;;23.10;27.80;;;;;;6129212;28;81748;-67
2021/03/21 15:06:35;;;;;;;7.65;4.80;;;23.10;28.00;;;;;;6132409;28;83745;-68
2021/03/21 15:09:35;;;;;;;9.75;4.40;;;23.10;28.00;;;;;;6129508;28;81355;-68
2021/03/21 15:12:36;;;;;;;11.02;4.35;;;23.20;28.20;;;;;;6130472;28;81012;-70
2021/03/21 15:15:37;;;;;;;7.95;4.40;;;23.20;28.10;;;;;;6112491;28;80493;-67
2021/03/21 15:18:38;;;;;;;8.50;4.85;;;23.20;28.60;;;;;;6127493;28;80806;-68
2021/03/21 15:21:38;;;;;;;8.35;4.47;;;23.20;28.40;;;;;;6106851;28;81006;-67
2021/03/21 15:24:39;;;;;;;7.35;4.28;;;23.30;28.60;;;;;;6112306;28;81240;-67
2021/03/21 15:27:40;;;;;;;19.65;6.55;;;23.30;28.50;;;;;;6129416;28;80719;-69
2021/03/21 15:30:40;;;;;;;268.67;100.32;;;23.30;28.70;;;;;;6134443;28;82225;-69